Time;durP1;ratioP1;P1;durP2;ratioP2;P2;SDS_P1;SDS_P2;PMS_P1;PMS_P2;Temp;Humidity;BMP_temperature;BMP_pressure;BME280_temperature;BME280_humidity;BME280_pressure;Samples;Min_cycle;Max_cycle;Signal;HPM_P1;HPM_P2
2022/12/23 00:00:33;;;;;;;5.55;1.58;;;;;;;;;;5060602;28;20045;-72
2022/12/23 00:03:18;;;;;;;3.13;2.00;;;;;;;;;;5049378;28;20041;-72
2022/12/23 00:06:08;;;;;;;1.65;0.90;;;;;;;;;;5054894;28;20574;-69
2022/12/23 00:08:56;;;;;;;10.25;1.63;;;;;;;;;;5055867;28;20067;-70
2022/12/23 00:15:04;;;;;;;1.77;1.23;;;;;;;;;;5056254;28;20707;-72
2022/12/23 00:15:05;;;;;;;5.70;1.45;;;;;;;;;;5055084;28;20193;-70
2022/12/23 00:17:50;;;;;;;3.92;1.25;;;;;;;;;;5054952;28;20028;-71
2022/12/23 00:20:36;;;;;;;4.57;1.40;;;;;;;;;;5058085;28;20597;-69
2022/12/23 00:23:21;;;;;;;2.88;1.05;;;;;;;;;;5056114;28;20062;-68
2022/12/23 00:26:06;;;;;;;4.28;2.30;;;;;;;;;;5054450;28;20517;-71
2022/12/23 00:28:53;;;;;;;3.42;1.20;;;;;;;;;;5048846;28;20052;-74
2022/12/23 00:31:39;;;;;;;3.97;1.20;;;;;;;;;;5057512;28;20430;-75
2022/12/23 00:34:24;;;;;;;3.58;1.05;;;;;;;;;;5056018;28;20036;-74
2022/12/23 00:37:09;;;;;;;4.38;1.10;;;;;;;;;;5036907;28;21672;-75
2022/12/23 00:42:59;;;;;;;4.20;1.30;;;;;;;;;;5052399;28;20467;-69
2022/12/23 00:45:45;;;;;;;2.25;1.10;;;;;;;;;;5055818;28;20038;-70
2022/12/23 00:51:34;;;;;;;2.55;0.93;;;;;;;;;;5054938;28;20036;-69
2022/12/23 00:54:19;;;;;;;1.75;0.75;;;;;;;;;;5055022;28;20035;-67
2022/12/23 00:57:05;;;;;;;1.77;1.00;;;;;;;;;;5041796;28;20039;-67
2022/12/23 00:59:50;;;;;;;1.77;0.80;;;;;;;;;;5061562;28;20063;-70
2022/12/23 01:05:40;;;;;;;2.05;0.90;;;;;;;;;;5055347;28;20032;-68
2022/12/23 01:08:26;;;;;;;1.85;1.00;;;;;;;;;;5053121;28;20058;-69
2022/12/23 01:11:11;;;;;;;2.20;0.85;;;;;;;;;;5055339;28;20531;-70
2022/12/23 01:13:57;;;;;;;0.93;0.80;;;;;;;;;;5055949;28;20039;-70
2022/12/23 01:16:43;;;;;;;3.10;0.90;;;;;;;;;;5054879;28;20032;-68
2022/12/23 01:19:28;;;;;;;1.77;0.95;;;;;;;;;;5054533;28;20041;-69
2022/12/23 01:22:13;;;;;;;0.75;0.70;;;;;;;;;;5043935;28;20484;-67
2022/12/23 01:24:59;;;;;;;0.73;0.70;;;;;;;;;;5052148;28;20028;-66
2022/12/23 01:27:44;;;;;;;1.92;0.70;;;;;;;;;;5050487;28;20029;-66
2022/12/23 01:30:29;;;;;;;0.98;0.90;;;;;;;;;;5052072;28;20028;-67
2022/12/23 01:33:14;;;;;;;1.88;0.70;;;;;;;;;;5055023;28;20064;-69
2022/12/23 01:36:04;;;;;;;1.42;0.65;;;;;;;;;;5055356;28;20060;-75
2022/12/23 01:38:49;;;;;;;1.58;0.77;;;;;;;;;;5050082;28;20085;-71
2022/12/23 01:44:56;;;;;;;1.00;0.70;;;;;;;;;;5054387;28;20456;-68
2022/12/23 01:47:44;;;;;;;2.83;1.00;;;;;;;;;;5046556;28;20425;-71
2022/12/23 01:50:31;;;;;;;1.55;0.70;;;;;;;;;;5052674;28;20123;-69
2022/12/23 01:53:19;;;;;;;1.85;0.90;;;;;;;;;;5050358;28;20493;-71
2022/12/23 01:56:06;;;;;;;0.80;0.80;;;;;;;;;;5047322;28;20029;-66
2022/12/23 01:58:54;;;;;;;2.50;0.80;;;;;;;;;;5048315;28;20032;-69
2022/12/23 02:04:43;;;;;;;1.95;0.77;;;;;;;;;;5063650;28;20033;-68
2022/12/23 02:11:02;;;;;;;1.15;0.60;;;;;;;;;;5046675;28;20183;-67
2022/12/23 02:17:17;;;;;;;2.78;1.05;;;;;;;;;;5046605;28;20072;-68
2022/12/23 02:20:12;;;;;;;0.82;0.70;;;;;;;;;;5051054;28;20028;-68
2022/12/23 02:23:06;;;;;;;1.00;0.60;;;;;;;;;;5042282;28;20472;-69
2022/12/23 02:25:57;;;;;;;2.75;0.98;;;;;;;;;;5042948;28;20537;-67
2022/12/23 02:28:49;;;;;;;1.55;0.60;;;;;;;;;;5047812;28;20040;-71
2022/12/23 02:31:41;;;;;;;4.05;0.80;;;;;;;;;;5050597;28;20032;-71
2022/12/23 02:34:35;;;;;;;1.27;0.55;;;;;;;;;;5052063;28;20036;-70
2022/12/23 02:37:36;;;;;;;4.10;0.60;;;;;;;;;;5052757;28;20264;-70
2022/12/23 02:40:30;;;;;;;0.70;0.70;;;;;;;;;;5058904;28;20395;-68
2022/12/23 02:43:27;;;;;;;1.65;0.80;;;;;;;;;;5048339;28;20074;-71
2022/12/23 02:46:19;;;;;;;2.80;0.82;;;;;;;;;;5046940;28;20021;-69
2022/12/23 02:49:10;;;;;;;0.88;0.60;;;;;;;;;;5051985;28;20040;-69
2022/12/23 02:51:57;;;;;;;1.50;0.70;;;;;;;;;;5046955;28;20032;-70
2022/12/23 02:54:44;;;;;;;0.98;0.68;;;;;;;;;;5050009;28;20025;-74
2022/12/23 02:57:35;;;;;;;1.35;0.70;;;;;;;;;;5048684;28;20179;-75
2022/12/23 03:00:21;;;;;;;1.02;0.60;;;;;;;;;;5046857;28;20047;-74
2022/12/23 03:03:06;;;;;;;1.65;0.90;;;;;;;;;;5029072;28;20430;-75
2022/12/23 03:05:52;;;;;;;3.60;0.90;;;;;;;;;;5034506;28;20028;-74
2022/12/23 03:08:41;;;;;;;4.63;0.90;;;;;;;;;;5044865;28;20468;-71
2022/12/23 03:11:38;;;;;;;1.65;0.65;;;;;;;;;;5050523;28;20044;-69
2022/12/23 03:14:24;;;;;;;0.70;0.70;;;;;;;;;;5045329;28;20125;-67
2022/12/23 03:17:24;;;;;;;0.70;0.63;;;;;;;;;;5041605;28;20036;-68
2022/12/23 03:20:19;;;;;;;1.42;0.63;;;;;;;;;;5046770;28;20028;-68
2022/12/23 03:23:27;;;;;;;1.58;0.95;;;;;;;;;;5044463;28;20079;-68
2022/12/23 03:26:12;;;;;;;2.05;0.68;;;;;;;;;;5050366;28;20033;-67
2022/12/23 03:29:00;;;;;;;1.05;0.65;;;;;;;;;;5040468;28;20056;-69
2022/12/23 03:31:46;;;;;;;2.72;0.90;;;;;;;;;;5047600;28;20040;-79
2022/12/23 03:34:35;;;;;;;2.08;0.70;;;;;;;;;;5045000;28;20048;-80
2022/12/23 03:37:22;;;;;;;3.30;0.70;;;;;;;;;;5046664;28;20086;-79
2022/12/23 03:40:10;;;;;;;2.97;0.75;;;;;;;;;;5042692;28;20106;-79
2022/12/23 03:42:59;;;;;;;4.00;0.70;;;;;;;;;;5053805;28;20025;-81
2022/12/23 03:45:47;;;;;;;1.75;0.68;;;;;;;;;;5051926;28;20107;-80
2022/12/23 03:48:35;;;;;;;3.72;0.70;;;;;;;;;;5040198;28;20560;-74
2022/12/23 03:51:27;;;;;;;1.02;0.75;;;;;;;;;;5047976;28;20112;-74
2022/12/23 03:54:16;;;;;;;1.08;0.70;;;;;;;;;;5052956;28;20036;-74
2022/12/23 03:57:03;;;;;;;0.82;0.68;;;;;;;;;;5049173;28;20051;-73
2022/12/23 03:59:52;;;;;;;1.17;0.90;;;;;;;;;;5048021;28;20487;-73
2022/12/23 04:02:38;;;;;;;;;;;;;;;;;;5050221;28;20119;-73
2022/12/23 04:05:28;;;;;;;1.50;1.05;;;;;;;;;;5048618;28;19920;-70
2022/12/23 04:08:16;;;;;;;2.05;1.08;;;;;;;;;;5049624;28;20104;-73
2022/12/23 04:11:02;;;;;;;1.00;0.60;;;;;;;;;;5052484;28;20724;-74
2022/12/23 04:13:47;;;;;;;2.25;0.80;;;;;;;;;;5057680;28;20365;-74
2022/12/23 04:16:33;;;;;;;2.60;0.60;;;;;;;;;;5042078;28;20522;-72
2022/12/23 04:19:18;;;;;;;1.70;0.65;;;;;;;;;;5045538;28;20493;-74
2022/12/23 04:22:03;;;;;;;1.90;0.88;;;;;;;;;;5053869;28;20032;-78
2022/12/23 04:24:49;;;;;;;2.53;0.77;;;;;;;;;;5048658;28;20535;-79
2022/12/23 04:27:34;;;;;;;1.65;0.80;;;;;;;;;;5053259;28;20028;-77
2022/12/23 04:30:19;;;;;;;1.10;0.70;;;;;;;;;;5050962;28;20035;-77
2022/12/23 04:33:04;;;;;;;0.80;0.80;;;;;;;;;;5044396;28;20036;-77
2022/12/23 04:35:49;;;;;;;7.80;1.98;;;;;;;;;;5045256;28;20129;-77
2022/12/23 04:38:35;;;;;;;2.47;0.60;;;;;;;;;;5051364;28;20037;-78
2022/12/23 04:41:20;;;;;;;2.95;0.90;;;;;;;;;;5051873;28;20068;-74
2022/12/23 04:44:05;;;;;;;2.38;0.70;;;;;;;;;;5044270;28;20032;-79
2022/12/23 04:46:51;;;;;;;1.17;0.90;;;;;;;;;;5059699;28;20027;-78
2022/12/23 04:49:36;;;;;;;2.22;0.65;;;;;;;;;;5044042;28;20605;-77
2022/12/23 04:52:21;;;;;;;1.65;0.80;;;;;;;;;;5054865;28;20282;-77
2022/12/23 04:55:06;;;;;;;1.80;1.00;;;;;;;;;;5045912;28;20037;-77
2022/12/23 04:57:52;;;;;;;5.05;0.77;;;;;;;;;;5046189;28;20097;-79
2022/12/23 05:00:37;;;;;;;1.98;1.00;;;;;;;;;;5047312;28;20041;-71
2022/12/23 05:03:22;;;;;;;4.45;0.98;;;;;;;;;;5047676;28;20052;-68
2022/12/23 05:06:07;;;;;;;0.77;0.70;;;;;;;;;;5050709;28;20063;-69
2022/12/23 05:08:52;;;;;;;2.80;1.05;;;;;;;;;;5046298;28;20032;-69
2022/12/23 05:11:38;;;;;;;4.10;1.23;;;;;;;;;;5045695;28;20124;-70
2022/12/23 05:14:23;;;;;;;1.73;0.82;;;;;;;;;;5045548;28;20086;-70
2022/12/23 05:17:08;;;;;;;1.80;0.80;;;;;;;;;;5046173;28;20094;-68
2022/12/23 05:19:53;;;;;;;4.18;0.90;;;;;;;;;;5050874;28;20124;-75
2022/12/23 05:22:38;;;;;;;1.67;0.80;;;;;;;;;;5045050;28;20029;-76
2022/12/23 05:25:24;;;;;;;3.20;1.45;;;;;;;;;;5040861;28;20365;-74
2022/12/23 05:28:09;;;;;;;4.28;1.05;;;;;;;;;;5053476;28;20087;-74
2022/12/23 05:30:58;;;;;;;3.83;1.48;;;;;;;;;;5045440;28;20086;-74
2022/12/23 05:33:43;;;;;;;2.10;1.20;;;;;;;;;;5050983;28;20108;-73
2022/12/23 05:36:28;;;;;;;6.35;1.38;;;;;;;;;;5048328;28;20040;-70
2022/12/23 05:39:13;;;;;;;3.85;1.35;;;;;;;;;;5043348;28;20029;-73
2022/12/23 05:41:59;;;;;;;2.20;1.00;;;;;;;;;;5034640;28;20323;-73
2022/12/23 05:44:44;;;;;;;3.72;2.28;;;;;;;;;;5044883;28;20067;-74
2022/12/23 05:47:29;;;;;;;4.07;1.10;;;;;;;;;;5050849;28;20031;-74
2022/12/23 05:50:15;;;;;;;3.30;1.73;;;;;;;;;;5045079;28;20056;-73
2022/12/23 05:53:00;;;;;;;4.43;1.08;;;;;;;;;;5046453;28;20051;-73
2022/12/23 05:55:46;;;;;;;3.22;1.77;;;;;;;;;;5049102;28;20071;-77
2022/12/23 05:58:31;;;;;;;3.20;1.60;;;;;;;;;;5039905;28;20033;-70
2022/12/23 06:01:16;;;;;;;3.83;1.40;;;;;;;;;;5047292;28;20059;-70
2022/12/23 06:04:01;;;;;;;3.50;1.10;;;;;;;;;;5046497;28;20620;-71
2022/12/23 06:06:47;;;;;;;2.42;1.30;;;;;;;;;;5043640;28;20032;-70
2022/12/23 06:09:32;;;;;;;9.52;1.38;;;;;;;;;;5048823;28;20037;-69
2022/12/23 06:12:17;;;;;;;3.03;1.08;;;;;;;;;;5051109;28;20024;-67
2022/12/23 06:15:03;;;;;;;5.43;1.25;;;;;;;;;;5051155;28;20527;-80
2022/12/23 06:17:48;;;;;;;4.55;1.17;;;;;;;;;;5060341;28;20079;-78
2022/12/23 06:20:33;;;;;;;3.08;1.15;;;;;;;;;;5054839;28;20111;-78
2022/12/23 06:23:18;;;;;;;1.00;0.95;;;;;;;;;;5055887;28;20103;-77
2022/12/23 06:26:04;;;;;;;1.67;1.00;;;;;;;;;;5049060;28;20123;-78
2022/12/23 06:28:49;;;;;;;3.97;1.20;;;;;;;;;;5036147;28;20025;-77
2022/12/23 06:31:34;;;;;;;3.42;1.63;;;;;;;;;;5043142;28;20036;-70
2022/12/23 06:34:19;;;;;;;1.50;1.10;;;;;;;;;;5047835;28;20479;-70
2022/12/23 06:37:05;;;;;;;2.38;1.10;;;;;;;;;;5053607;28;20038;-69
2022/12/23 06:39:50;;;;;;;4.63;1.30;;;;;;;;;;5049576;28;20068;-70
2022/12/23 06:42:35;;;;;;;2.53;1.30;;;;;;;;;;5047313;28;20036;-69
2022/12/23 06:45:20;;;;;;;5.43;1.25;;;;;;;;;;5050222;28;20376;-67
2022/12/23 06:48:06;;;;;;;3.90;1.52;;;;;;;;;;5056839;28;20036;-69
2022/12/23 06:50:51;;;;;;;3.83;1.48;;;;;;;;;;5050777;28;20043;-80
2022/12/23 06:53:36;;;;;;;4.10;1.60;;;;;;;;;;5056089;28;20065;-70
2022/12/23 06:56:22;;;;;;;5.28;1.42;;;;;;;;;;5047003;28;20040;-64
2022/12/23 06:59:07;;;;;;;4.43;1.75;;;;;;;;;;5041798;28;20044;-66
2022/12/23 07:01:52;;;;;;;6.07;1.88;;;;;;;;;;5051603;28;20031;-64
2022/12/23 07:04:37;;;;;;;8.60;1.25;;;;;;;;;;5050086;28;20537;-63
2022/12/23 07:07:22;;;;;;;6.22;1.85;;;;;;;;;;5049708;28;20076;-77
2022/12/23 07:10:08;;;;;;;5.32;1.48;;;;;;;;;;5048296;28;20044;-71
2022/12/23 07:12:53;;;;;;;6.30;1.95;;;;;;;;;;5051780;28;20554;-70
2022/12/23 07:15:38;;;;;;;2.55;1.60;;;;;;;;;;5052105;28;20040;-69
2022/12/23 07:18:24;;;;;;;3.78;1.65;;;;;;;;;;5046994;28;20043;-70
2022/12/23 07:21:09;;;;;;;3.88;1.33;;;;;;;;;;5038865;28;20030;-70
2022/12/23 07:23:54;;;;;;;2.50;1.40;;;;;;;;;;5039704;28;20444;-70
2022/12/23 07:26:39;;;;;;;4.22;1.48;;;;;;;;;;5060711;28;20032;-78
2022/12/23 07:29:25;;;;;;;4.80;1.73;;;;;;;;;;5049706;28;20044;-68
2022/12/23 07:32:10;;;;;;;3.33;1.70;;;;;;;;;;5045225;28;20463;-67
2022/12/23 07:34:55;;;;;;;7.30;2.63;;;;;;;;;;5052189;28;20287;-67
2022/12/23 07:37:40;;;;;;;5.88;2.22;;;;;;;;;;5047151;28;20040;-67
2022/12/23 07:40:26;;;;;;;9.27;3.88;;;;;;;;;;5049320;28;20114;-67
2022/12/23 07:43:11;;;;;;;5.43;2.47;;;;;;;;;;5045476;28;20472;-70
2022/12/23 07:45:56;;;;;;;5.40;2.47;;;;;;;;;;5050891;28;20033;-69
2022/12/23 07:48:41;;;;;;;7.18;2.10;;;;;;;;;;5035973;28;20040;-71
2022/12/23 07:51:27;;;;;;;4.13;2.30;;;;;;;;;;5040451;28;20090;-70
2022/12/23 07:54:12;;;;;;;5.85;1.90;;;;;;;;;;5056764;28;20032;-70
2022/12/23 07:56:57;;;;;;;4.38;1.77;;;;;;;;;;5052955;28;20032;-69
2022/12/23 07:59:43;;;;;;;4.65;2.00;;;;;;;;;;5049768;28;20040;-68
2022/12/23 08:02:28;;;;;;;5.25;1.80;;;;;;;;;;5034117;28;20048;-70
2022/12/23 08:05:13;;;;;;;7.20;2.55;;;;;;;;;;5044441;28;20336;-69
2022/12/23 08:07:59;;;;;;;3.85;1.83;;;;;;;;;;5056968;28;20036;-63
2022/12/23 08:10:44;;;;;;;3.28;2.28;;;;;;;;;;5042234;28;20045;-64
2022/12/23 08:13:30;;;;;;;4.35;1.90;;;;;;;;;;5055617;28;20094;-64
2022/12/23 08:16:15;;;;;;;5.80;2.40;;;;;;;;;;5052935;28;20032;-64
2022/12/23 08:19:00;;;;;;;9.65;1.92;;;;;;;;;;5047017;28;20044;-64
2022/12/23 08:21:45;;;;;;;5.68;1.92;;;;;;;;;;5045960;28;20024;-70
2022/12/23 08:24:31;;;;;;;3.88;2.10;;;;;;;;;;5039107;28;20430;-72
2022/12/23 08:27:16;;;;;;;3.80;2.08;;;;;;;;;;5049596;28;20110;-72
2022/12/23 08:30:01;;;;;;;4.70;2.13;;;;;;;;;;5055749;28;20029;-71
2022/12/23 08:32:46;;;;;;;5.43;1.88;;;;;;;;;;5041981;28;20048;-71
2022/12/23 08:35:32;;;;;;;5.53;1.50;;;;;;;;;;5046034;28;20036;-72
2022/12/23 08:38:17;;;;;;;6.07;1.70;;;;;;;;;;5050526;28;20063;-71
2022/12/23 08:41:02;;;;;;;5.85;2.25;;;;;;;;;;5048311;28;20044;-72
2022/12/23 08:43:47;;;;;;;5.25;2.42;;;;;;;;;;5053267;28;20585;-73
2022/12/23 08:46:32;;;;;;;4.00;2.15;;;;;;;;;;5064220;28;20048;-68
2022/12/23 08:49:18;;;;;;;5.78;2.13;;;;;;;;;;5054776;28;20068;-69
2022/12/23 08:52:03;;;;;;;2.13;1.75;;;;;;;;;;5049848;28;20118;-69
2022/12/23 08:54:48;;;;;;;4.07;1.92;;;;;;;;;;5046480;28;20028;-70
2022/12/23 08:57:33;;;;;;;4.28;2.10;;;;;;;;;;5053899;28;20029;-74
2022/12/23 09:00:19;;;;;;;6.30;2.33;;;;;;;;;;5058941;28;20113;-69
2022/12/23 09:03:04;;;;;;;3.08;1.92;;;;;;;;;;5067424;28;20032;-65
2022/12/23 09:05:49;;;;;;;5.50;2.30;;;;;;;;;;5052233;28;20036;-64
2022/12/23 09:08:34;;;;;;;4.15;2.20;;;;;;;;;;5061321;28;20024;-64
2022/12/23 09:11:22;;;;;;;2.85;1.65;;;;;;;;;;5057642;28;20040;-63
2022/12/23 09:14:10;;;;;;;5.60;2.03;;;;;;;;;;5043539;28;20049;-65
2022/12/23 09:16:55;;;;;;;6.30;1.90;;;;;;;;;;5058233;28;20032;-72
2022/12/23 09:19:40;;;;;;;3.85;2.15;;;;;;;;;;5062231;28;20078;-63
2022/12/23 09:22:25;;;;;;;7.43;2.50;;;;;;;;;;5047727;28;20033;-63
2022/12/23 09:25:11;;;;;;;4.10;1.98;;;;;;;;;;5043224;28;20135;-64
2022/12/23 09:27:56;;;;;;;3.63;2.22;;;;;;;;;;5052895;28;20132;-64
2022/12/23 09:30:41;;;;;;;7.18;2.17;;;;;;;;;;5053359;28;20090;-63
2022/12/23 09:33:26;;;;;;;6.57;2.30;;;;;;;;;;5061948;28;20025;-63
2022/12/23 09:36:12;;;;;;;4.47;2.55;;;;;;;;;;5046575;28;20036;-68
2022/12/23 09:38:57;;;;;;;5.97;2.70;;;;;;;;;;5052485;28;20056;-70
2022/12/23 09:42:00;;;;;;;6.25;2.83;;;;;;;;;;5037920;28;20379;-68
2022/12/23 09:44:46;;;;;;;5.43;2.40;;;;;;;;;;5057057;28;20043;-69
2022/12/23 09:47:32;;;;;;;5.93;2.95;;;;;;;;;;5051069;28;20523;-69
2022/12/23 09:50:24;;;;;;;7.30;3.00;;;;;;;;;;5053834;28;20503;-70
2022/12/23 09:53:12;;;;;;;11.00;3.63;;;;;;;;;;5033989;28;20083;-69
2022/12/23 09:55:57;;;;;;;8.25;3.15;;;;;;;;;;5049647;28;20058;-62
2022/12/23 09:58:50;;;;;;;5.65;2.95;;;;;;;;;;5045696;28;20093;-63
2022/12/23 10:01:39;;;;;;;8.32;3.30;;;;;;;;;;5049712;28;20029;-64
2022/12/23 10:04:51;;;;;;;8.68;3.40;;;;;;;;;;5054347;28;20116;-64
2022/12/23 10:07:38;;;;;;;10.40;3.58;;;;;;;;;;5031443;28;20636;-63
2022/12/23 10:10:33;;;;;;;6.80;2.53;;;;;;;;;;5054763;28;20378;-64
2022/12/23 10:13:21;;;;;;;4.05;2.40;;;;;;;;;;5053077;28;20493;-69
2022/12/23 10:16:20;;;;;;;4.90;2.45;;;;;;;;;;5055965;28;20036;-67
2022/12/23 10:19:16;;;;;;;5.07;2.30;;;;;;;;;;5044267;28;20484;-69
2022/12/23 10:22:03;;;;;;;6.28;3.45;;;;;;;;;;5048207;28;20435;-68
2022/12/23 10:24:49;;;;;;;5.95;2.72;;;;;;;;;;5053751;28;20083;-68
2022/12/23 10:27:37;;;;;;;5.57;2.80;;;;;;;;;;5048260;28;20600;-67
2022/12/23 10:30:23;;;;;;;4.43;2.67;;;;;;;;;;5038403;28;20612;-62
2022/12/23 10:33:14;;;;;;;5.65;3.03;;;;;;;;;;5046085;28;20125;-72
2022/12/23 10:36:20;;;;;;;4.40;2.38;;;;;;;;;;5038499;28;20476;-72
2022/12/23 10:39:12;;;;;;;4.57;2.60;;;;;;;;;;5059113;28;20402;-73
2022/12/23 10:42:06;;;;;;;3.35;2.20;;;;;;;;;;5046660;28;20471;-73
2022/12/23 10:45:06;;;;;;;7.00;2.97;;;;;;;;;;5049844;28;20029;-74
2022/12/23 10:48:10;;;;;;;13.35;5.80;;;;;;;;;;5052044;28;20024;-75
2022/12/23 10:51:11;;;;;;;7.93;3.58;;;;;;;;;;5049831;28;20043;-70
2022/12/23 10:54:05;;;;;;;6.18;3.35;;;;;;;;;;5058167;28;20054;-69
2022/12/23 10:56:50;;;;;;;7.93;3.15;;;;;;;;;;5044246;28;20052;-71
2022/12/23 10:59:35;;;;;;;10.68;2.60;;;;;;;;;;5039995;28;20040;-71
2022/12/23 11:02:30;;;;;;;5.70;2.70;;;;;;;;;;5040557;28;20067;-69
2022/12/23 11:05:19;;;;;;;5.95;2.65;;;;;;;;;;5044512;28;20428;-69
2022/12/23 11:08:04;;;;;;;7.03;3.15;;;;;;;;;;5040114;28;20047;-71
2022/12/23 11:10:49;;;;;;;5.70;2.67;;;;;;;;;;5053195;28;20036;-66
2022/12/23 11:13:37;;;;;;;6.38;2.97;;;;;;;;;;5051082;28;20059;-66
2022/12/23 11:16:26;;;;;;;6.95;2.25;;;;;;;;;;5048268;28;20127;-64
2022/12/23 11:19:15;;;;;;;6.20;3.03;;;;;;;;;;5043058;28;20480;-64
2022/12/23 11:22:01;;;;;;;8.68;2.88;;;;;;;;;;5041838;28;20113;-64
2022/12/23 11:24:46;;;;;;;4.70;2.45;;;;;;;;;;5051826;28;20024;-69
2022/12/23 11:27:31;;;;;;;5.13;1.73;;;;;;;;;;5035807;28;20036;-71
2022/12/23 11:30:17;;;;;;;4.82;2.20;;;;;;;;;;5044221;28;20050;-73
2022/12/23 11:33:03;;;;;;;5.35;2.33;;;;;;;;;;5049675;28;20163;-72
2022/12/23 11:35:58;;;;;;;6.35;2.70;;;;;;;;;;5042381;28;20051;-74
2022/12/23 11:38:58;;;;;;;6.65;3.30;;;;;;;;;;5039462;28;20044;-73
2022/12/23 11:41:46;;;;;;;5.32;2.60;;;;;;;;;;5056678;28;20031;-72
2022/12/23 11:44:40;;;;;;;5.88;2.72;;;;;;;;;;5047579;28;20044;-66
2022/12/23 11:47:34;;;;;;;4.07;2.30;;;;;;;;;;5050031;28;20123;-70
2022/12/23 11:50:20;;;;;;;5.30;2.15;;;;;;;;;;5044601;28;20036;-71
2022/12/23 11:53:22;;;;;;;3.90;1.70;;;;;;;;;;5042860;28;20037;-70
2022/12/23 11:56:12;;;;;;;3.70;1.70;;;;;;;;;;5050717;28;20111;-71
2022/12/23 11:59:27;;;;;;;3.58;2.03;;;;;;;;;;5043740;28;20033;-72
2022/12/23 12:02:16;;;;;;;4.88;1.95;;;;;;;;;;5040132;28;20052;-75
2022/12/23 12:05:03;;;;;;;2.33;1.37;;;;;;;;;;5052069;28;20060;-70
2022/12/23 12:07:49;;;;;;;4.50;1.42;;;;;;;;;;5043349;28;20040;-73
2022/12/23 12:10:36;;;;;;;2.63;1.30;;;;;;;;;;5061554;28;20060;-71
2022/12/23 12:13:27;;;;;;;2.80;1.30;;;;;;;;;;5054814;28;20390;-70
2022/12/23 12:16:21;;;;;;;2.20;1.42;;;;;;;;;;5043437;28;20036;-69
2022/12/23 12:19:11;;;;;;;4.43;1.33;;;;;;;;;;5045573;28;20033;-71
2022/12/23 12:22:00;;;;;;;4.38;2.22;;;;;;;;;;5045153;28;20332;-72
2022/12/23 12:24:54;;;;;;;4.00;1.40;;;;;;;;;;5052880;28;20040;-70
2022/12/23 12:27:40;;;;;;;3.13;1.27;;;;;;;;;;5045764;28;20056;-69
2022/12/23 12:30:29;;;;;;;4.07;1.48;;;;;;;;;;5042182;28;20060;-69
2022/12/23 12:33:26;;;;;;;1.42;1.17;;;;;;;;;;5055017;28;20032;-69
2022/12/23 12:36:15;;;;;;;11.75;2.17;;;;;;;;;;5034336;28;20106;-68
2022/12/23 12:39:00;;;;;;;2.17;1.20;;;;;;;;;;5039797;28;20525;-78
2022/12/23 12:41:55;;;;;;;2.78;0.90;;;;;;;;;;5045154;28;20499;-68
2022/12/23 12:44:40;;;;;;;3.92;0.98;;;;;;;;;;5056558;28;20419;-69
2022/12/23 12:47:34;;;;;;;2.58;1.70;;;;;;;;;;5056400;28;20526;-68
2022/12/23 12:50:22;;;;;;;2.33;1.40;;;;;;;;;;5045422;28;20029;-70
2022/12/23 12:53:11;;;;;;;3.55;1.15;;;;;;;;;;5052888;28;20037;-67
2022/12/23 12:56:10;;;;;;;3.15;1.35;;;;;;;;;;5058436;28;20040;-67
2022/12/23 12:58:56;;;;;;;3.83;1.50;;;;;;;;;;5061171;28;20065;-75
2022/12/23 13:01:48;;;;;;;6.03;1.48;;;;;;;;;;5045341;28;20128;-66
2022/12/23 13:04:48;;;;;;;2.38;1.30;;;;;;;;;;5048917;28;20024;-65
2022/12/23 13:07:38;;;;;;;2.75;1.38;;;;;;;;;;5045544;28;20029;-66
2022/12/23 13:10:41;;;;;;;2.03;1.35;;;;;;;;;;5055997;28;20098;-65
2022/12/23 13:13:31;;;;;;;4.05;1.52;;;;;;;;;;5047762;28;20101;-67
2022/12/23 13:16:22;;;;;;;2.22;1.10;;;;;;;;;;5052157;28;20028;-67
2022/12/23 13:19:26;;;;;;;4.68;1.65;;;;;;;;;;5048613;28;20483;-75
2022/12/23 13:22:14;;;;;;;1.50;1.10;;;;;;;;;;5047399;28;20025;-75
2022/12/23 13:25:03;;;;;;;2.13;1.23;;;;;;;;;;5052179;28;20028;-74
2022/12/23 13:28:13;;;;;;;2.72;1.25;;;;;;;;;;5046574;28;20054;-75
2022/12/23 13:31:17;;;;;;;4.05;1.65;;;;;;;;;;5054950;28;20085;-75
2022/12/23 13:34:12;;;;;;;3.20;1.20;;;;;;;;;;5036266;28;20065;-78
2022/12/23 13:37:16;;;;;;;2.40;1.40;;;;;;;;;;5042758;28;20140;-66
2022/12/23 13:40:24;;;;;;;5.00;1.75;;;;;;;;;;5054528;28;20107;-67
2022/12/23 13:43:14;;;;;;;3.30;1.30;;;;;;;;;;5045562;28;20036;-66
2022/12/23 13:46:02;;;;;;;3.25;1.50;;;;;;;;;;5063334;28;20031;-66
2022/12/23 13:48:58;;;;;;;2.45;1.50;;;;;;;;;;5053261;28;20159;-68
2022/12/23 13:52:02;;;;;;;3.00;1.88;;;;;;;;;;5046439;28;20135;-68
2022/12/23 13:54:47;;;;;;;3.83;1.77;;;;;;;;;;5036971;28;20384;-70
2022/12/23 13:57:51;;;;;;;4.95;1.60;;;;;;;;;;5045384;28;20517;-69
2022/12/23 14:00:36;;;;;;;2.42;1.40;;;;;;;;;;5049205;28;20044;-72
2022/12/23 14:03:23;;;;;;;3.53;1.63;;;;;;;;;;5046556;28;20044;-70
2022/12/23 14:06:23;;;;;;;2.63;1.52;;;;;;;;;;5025532;28;20045;-72
2022/12/23 14:09:13;;;;;;;2.15;1.33;;;;;;;;;;5041692;28;20032;-71
2022/12/23 14:12:08;;;;;;;2.35;1.52;;;;;;;;;;5048137;28;20052;-70
2022/12/23 14:15:03;;;;;;;2.67;1.27;;;;;;;;;;5038259;28;20036;-67
2022/12/23 14:18:07;;;;;;;2.97;1.35;;;;;;;;;;5036010;28;20087;-70
2022/12/23 14:21:03;;;;;;;3.15;1.45;;;;;;;;;;5043389;28;20040;-69
2022/12/23 14:23:59;;;;;;;5.35;1.70;;;;;;;;;;5049965;28;20034;-69
2022/12/23 14:27:15;;;;;;;3.10;1.40;;;;;;;;;;5050543;28;20039;-68
2022/12/23 14:30:04;;;;;;;2.50;1.30;;;;;;;;;;5044471;28;20036;-72
2022/12/23 14:32:51;;;;;;;2.80;1.75;;;;;;;;;;5039210;28;20033;-73
2022/12/23 14:35:36;;;;;;;4.05;1.95;;;;;;;;;;5050350;28;20039;-72
2022/12/23 14:38:22;;;;;;;2.17;1.45;;;;;;;;;;5043907;28;20037;-73
2022/12/23 14:41:17;;;;;;;6.20;1.90;;;;;;;;;;5048839;28;20123;-73
2022/12/23 14:44:16;;;;;;;2.60;1.58;;;;;;;;;;5034706;28;20183;-70
2022/12/23 14:47:20;;;;;;;3.70;1.50;;;;;;;;;;5059910;28;20082;-72
2022/12/23 14:50:24;;;;;;;7.40;2.88;;;;;;;;;;5059947;28;20125;-65
2022/12/23 14:53:19;;;;;;;5.07;1.98;;;;;;;;;;5041368;28;20035;-65
2022/12/23 14:56:10;;;;;;;6.40;2.45;;;;;;;;;;5060311;28;20036;-64
2022/12/23 14:58:58;;;;;;;3.55;1.75;;;;;;;;;;5048229;28;20031;-67
2022/12/23 15:01:51;;;;;;;4.43;1.58;;;;;;;;;;5047444;28;20024;-65
2022/12/23 15:04:42;;;;;;;4.97;1.70;;;;;;;;;;5038810;28;20113;-65
2022/12/23 15:07:30;;;;;;;3.20;1.77;;;;;;;;;;5041377;28;20066;-79
2022/12/23 15:10:24;;;;;;;5.00;1.77;;;;;;;;;;5050694;28;20044;-73
2022/12/23 15:13:11;;;;;;;4.72;2.00;;;;;;;;;;5049692;28;20032;-75
2022/12/23 15:15:56;;;;;;;6.03;1.88;;;;;;;;;;5052060;28;20093;-79
2022/12/23 15:18:54;;;;;;;3.85;1.63;;;;;;;;;;5043434;28;20045;-74
2022/12/23 15:21:40;;;;;;;5.28;1.75;;;;;;;;;;5047200;28;20036;-76
2022/12/23 15:24:25;;;;;;;4.50;1.60;;;;;;;;;;5046839;28;20522;-71
2022/12/23 15:27:16;;;;;;;3.08;1.77;;;;;;;;;;5063515;28;20111;-69
2022/12/23 15:30:01;;;;;;;8.50;1.92;;;;;;;;;;5033309;28;20041;-70
2022/12/23 15:32:50;;;;;;;3.03;1.90;;;;;;;;;;5036971;28;20035;-70
2022/12/23 15:35:37;;;;;;;5.00;2.47;;;;;;;;;;5053029;28;20523;-71
2022/12/23 15:38:26;;;;;;;3.13;1.60;;;;;;;;;;5043108;28;20115;-69
2022/12/23 15:41:15;;;;;;;2.60;1.67;;;;;;;;;;5039920;28;20047;-70
2022/12/23 15:44:00;;;;;;;3.30;1.65;;;;;;;;;;5053251;28;20029;-74
2022/12/23 15:46:45;;;;;;;5.05;2.40;;;;;;;;;;5055241;28;20125;-74
2022/12/23 15:49:31;;;;;;;2.95;1.60;;;;;;;;;;5051125;28;20033;-72
2022/12/23 15:52:17;;;;;;;3.13;1.38;;;;;;;;;;5042047;28;20032;-74
2022/12/23 15:55:14;;;;;;;4.88;1.90;;;;;;;;;;5037611;28;20178;-71
2022/12/23 15:58:01;;;;;;;7.50;2.20;;;;;;;;;;5051146;28;20086;-73
2022/12/23 16:00:49;;;;;;;4.22;1.45;;;;;;;;;;5038385;28;20043;-69
2022/12/23 16:03:39;;;;;;;5.15;1.75;;;;;;;;;;5041534;28;20040;-73
2022/12/23 16:06:27;;;;;;;1.30;1.20;;;;;;;;;;5054482;28;20542;-76
2022/12/23 16:09:15;;;;;;;2.55;1.65;;;;;;;;;;5038215;28;20036;-75
2022/12/23 16:12:04;;;;;;;3.25;1.45;;;;;;;;;;5046601;28;20020;-76
2022/12/23 16:14:53;;;;;;;2.13;1.17;;;;;;;;;;5041074;28;20436;-77
2022/12/23 16:17:38;;;;;;;8.13;1.60;;;;;;;;;;5055860;28;20619;-78
2022/12/23 16:20:24;;;;;;;8.18;1.60;;;;;;;;;;5034203;28;20045;-69
2022/12/23 16:23:10;;;;;;;1.63;1.52;;;;;;;;;;5046937;28;20037;-70
2022/12/23 16:25:57;;;;;;;5.68;1.83;;;;;;;;;;5043181;28;20063;-70
2022/12/23 16:28:44;;;;;;;3.88;1.30;;;;;;;;;;5038914;28;20037;-72
2022/12/23 16:31:29;;;;;;;5.00;2.22;;;;;;;;;;5053531;28;20051;-72
2022/12/23 16:34:14;;;;;;;5.05;1.75;;;;;;;;;;5047999;28;20467;-71
2022/12/23 16:37:00;;;;;;;2.83;1.52;;;;;;;;;;5048425;28;20029;-70
2022/12/23 16:39:45;;;;;;;6.63;1.52;;;;;;;;;;5044096;28;20029;-70
2022/12/23 16:42:31;;;;;;;3.22;1.23;;;;;;;;;;5047088;28;20032;-78
2022/12/23 16:45:16;;;;;;;2.28;1.25;;;;;;;;;;5041338;28;20533;-78
2022/12/23 16:48:06;;;;;;;5.32;1.50;;;;;;;;;;5042364;28;20035;-77
2022/12/23 16:50:51;;;;;;;;;;;;;;;;;;5054444;28;20071;-80
2022/12/23 16:53:36;;;;;;;3.83;1.60;;;;;;;;;;5043640;28;19974;-79
2022/12/23 16:56:23;;;;;;;3.28;1.35;;;;;;;;;;5051475;28;20044;-81
2022/12/23 16:59:08;;;;;;;5.93;1.52;;;;;;;;;;5046411;28;20036;-67
2022/12/23 17:01:54;;;;;;;3.58;1.65;;;;;;;;;;5047377;28;20230;-68
2022/12/23 17:04:39;;;;;;;6.97;1.85;;;;;;;;;;5050252;28;20040;-69
2022/12/23 17:07:25;;;;;;;2.55;1.08;;;;;;;;;;5056005;28;20036;-66
2022/12/23 17:10:11;;;;;;;4.65;1.45;;;;;;;;;;5044562;28;20403;-67
2022/12/23 17:12:56;;;;;;;2.58;1.40;;;;;;;;;;5051498;28;20537;-66